MV Schillig — ZDKV2 — position and weather

sailwx.info

Track history (hours):
 
Tides and Currents Weather Stations Pressure Air Temp Water Temp Dewpoint Dewpoint Depression Visibility Wind Speed Wind Dir Waves Ship Positions

MV Schillig

Last reported at 2018-Feb-20 09:54 UTC. Time now 2018-Feb-23 01:12 UTC.
Position N 45°33' E 036°49'.

Length 86 m; draft 3.6 m.

Type: Ship. MMSI: 236111817.

Date/timePositionNaut miles runAvg speedWind from/ knotsBaromVisibWave heightAir tempDewpointWater temp
2018-Feb-20 09:54N 45°33' E 036°49'4 9.7
2018-Feb-20 09:30N 45°30' E 036°45'5 9.2
2018-Feb-20 09:00N 45°28' E 036°39'1 1.0
2018-Feb-20 08:26N 45°28' E 036°38'0 0.0
2018-Feb-20 07:56N 45°28' E 036°38'0 0.0
2018-Feb-20 07:26N 45°28' E 036°38'0 0.0
2018-Feb-20 06:59N 45°28' E 036°38'0 0.1
2018-Feb-20 06:29N 45°28' E 036°38'0 0.1
2018-Feb-20 05:59N 45°28' E 036°38'0 0.0
2018-Feb-20 05:29N 45°28' E 036°38'0 0.0
2018-Feb-20 04:59N 45°28' E 036°38'0 0.0
2018-Feb-20 04:29N 45°28' E 036°38'0 0.0
2018-Feb-20 03:59N 45°28' E 036°38'0 0.0
2018-Feb-20 03:29N 45°28' E 036°38'0 0.0
2018-Feb-20 02:59N 45°28' E 036°38'0 0.0
2018-Feb-20 02:20N 45°28' E 036°38'0 0.0
2018-Feb-20 01:38N 45°28' E 036°38'0 0.0
2018-Feb-20 01:29N 45°28' E 036°38'0 0.1
2018-Feb-20 00:59N 45°28' E 036°38'0 0.0
2018-Feb-20 00:29N 45°28' E 036°38'0 0.0
2018-Feb-19 23:50N 45°28' E 036°38'0 0.0
2018-Feb-19 23:23N 45°28' E 036°38'0 0.0
2018-Feb-19 22:56N 45°28' E 036°38'0 0.0
2018-Feb-19 22:29N 45°28' E 036°38'1 1.8
2018-Feb-19 22:00N 45°27' E 036°39'4 8.6
2018-Feb-19 21:31N 45°23' E 036°41'4 8.4
2018-Feb-19 21:00N 45°20' E 036°36'5 9.5
2018-Feb-19 20:30N 45°18' E 036°30'6 6.3
2018-Feb-19 19:36N 45°13' E 036°29'1 5.2
2018-Feb-19 19:29N 45°12' E 036°30'0 0.8
2018-Feb-19 18:54N 45°12' E 036°30'0 0.0
2018-Feb-19 15:15N 45°12' E 036°30'0 1.4
2018-Feb-19 14:58N 45°11' E 036°30'910.9
2018-Feb-19 14:11N 45°03' E 036°30'30710.6
2018-Feb-18 09:06N 43°60' E 029°28'111.9
2018-Feb-18 09:00N 43°60' E 029°27'611.6
2018-Feb-18 08:30N 43°59' E 029°19'611.2
2018-Feb-18 08:00N 43°59' E 029°11'611.3
2018-Feb-18 07:31N 43°59' E 029°03'611.3
2018-Feb-18 07:01N 43°59' E 028°55'511.0
2018-Feb-18 06:31N 43°59' E 028°48'611.9
2018-Feb-18 06:01N 44°04' E 028°43'5 9.8
2018-Feb-18 05:31N 44°09' E 028°40'1 1.7
2018-Feb-18 04:59N 44°09' E 028°39'0 0.0
2018-Feb-18 04:29N 44°09' E 028°39'0 0.0
2018-Feb-18 03:59N 44°09' E 028°39'0 0.0
2018-Feb-18 03:29N 44°09' E 028°39'0 0.0
2018-Feb-18 02:58N 44°09' E 028°39'0 0.0
2018-Feb-18 02:28N 44°09' E 028°39'0 0.0
2018-Feb-18 01:59N 44°09' E 028°39'0 0.0
2018-Feb-18 01:29N 44°09' E 028°39'0 0.0
2018-Feb-18 00:59N 44°09' E 028°39'0 0.0
2018-Feb-18 00:28N 44°09' E 028°39'0 0.0
2018-Feb-17 23:59N 44°09' E 028°39'0 0.0
2018-Feb-17 23:29N 44°09' E 028°39'0 0.2
2018-Feb-17 23:01N 44°09' E 028°39'1 2.1
2018-Feb-17 22:30N 44°09' E 028°40'3 6.8
2018-Feb-17 22:00N 44°06' E 028°43'2 4.3
2018-Feb-17 21:30N 44°07' E 028°46'0 0.4
2018-Feb-17 20:58N 44°07' E 028°46'0 0.0
2018-Feb-17 20:28N 44°07' E 028°46'0 0.1
2018-Feb-17 19:58N 44°07' E 028°46'0 0.1
2018-Feb-17 19:28N 44°07' E 028°46'0 0.0
2018-Feb-17 18:58N 44°07' E 028°46'0 0.0
2018-Feb-17 18:25N 44°07' E 028°46'0 0.0
2018-Feb-17 17:58N 44°07' E 028°46'0 0.0
2018-Feb-17 17:28N 44°07' E 028°46'0 0.0
2018-Feb-17 16:58N 44°07' E 028°46'0 0.0
2018-Feb-17 16:28N 44°07' E 028°46'0 0.0
2018-Feb-17 15:58N 44°07' E 028°46'0 0.0
2018-Feb-17 15:28N 44°07' E 028°46'0 0.0
2018-Feb-17 14:58N 44°07' E 028°46'0 0.0
2018-Feb-17 14:28N 44°07' E 028°46'0 0.0
2018-Feb-17 13:58N 44°07' E 028°46'0 0.0
2018-Feb-17 13:28N 44°07' E 028°46'0 0.0
2018-Feb-17 12:58N 44°07' E 028°46'0 0.0
2018-Feb-17 12:28N 44°07' E 028°46'0 0.0
2018-Feb-17 11:58N 44°07' E 028°46'0 0.0
2018-Feb-17 11:28N 44°07' E 028°46'0 0.0
2018-Feb-17 10:58N 44°07' E 028°46'0 0.0
2018-Feb-17 10:28N 44°07' E 028°46'0 0.0
2018-Feb-17 09:58N 44°07' E 028°46'0 0.5
2018-Feb-17 09:31N 44°07' E 028°46'4 7.8
2018-Feb-17 09:01N 44°03' E 028°48'510.5
2018-Feb-17 08:31N 43°58' E 028°50'510.5
2018-Feb-17 08:00N 43°53' E 028°51'510.4
2018-Feb-17 07:31N 43°48' E 028°51'510.3
2018-Feb-17 07:01N 43°43' E 028°52'510.3
2018-Feb-17 06:31N 43°37' E 028°53'510.2
2018-Feb-17 06:00N 43°32' E 028°54'510.0
2018-Feb-17 05:30N 43°27' E 028°54'510.0
2018-Feb-17 04:58N 43°22' E 028°55'  
2018-Feb-13 01:21N 36°30' E 014°36'411.4
2018-Feb-13 00:58N 36°31' E 014°31'  
Track history (hours):
 
Tides and Currents Weather Stations Pressure Air Temp Water Temp Dewpoint Dewpoint Depression Visibility Wind Speed Wind Dir Waves Ship Positions

MV Schillig

Last reported at 2018-Feb-20 09:54 UTC. Time now 2018-Feb-23 01:12 UTC.
Position N 45°33' E 036°49'.

Length 86 m; draft 3.6 m.

Type: Ship. MMSI: 236111817.

Date/timePositionNaut miles runAvg speedWind from/ knotsBaromVisibWave heightAir tempDewpointWater temp
2018-Feb-20 09:54N 45°33' E 036°49'4 9.7
2018-Feb-20 09:30N 45°30' E 036°45'5 9.2
2018-Feb-20 09:00N 45°28' E 036°39'1 1.0
2018-Feb-20 08:26N 45°28' E 036°38'0 0.0
2018-Feb-20 07:56N 45°28' E 036°38'0 0.0
2018-Feb-20 07:26N 45°28' E 036°38'0 0.0
2018-Feb-20 06:59N 45°28' E 036°38'0 0.1
2018-Feb-20 06:29N 45°28' E 036°38'0 0.1
2018-Feb-20 05:59N 45°28' E 036°38'0 0.0
2018-Feb-20 05:29N 45°28' E 036°38'0 0.0
2018-Feb-20 04:59N 45°28' E 036°38'0 0.0
2018-Feb-20 04:29N 45°28' E 036°38'0 0.0
2018-Feb-20 03:59N 45°28' E 036°38'0 0.0
2018-Feb-20 03:29N 45°28' E 036°38'0 0.0
2018-Feb-20 02:59N 45°28' E 036°38'0 0.0
2018-Feb-20 02:20N 45°28' E 036°38'0 0.0
2018-Feb-20 01:38N 45°28' E 036°38'0 0.0
2018-Feb-20 01:29N 45°28' E 036°38'0 0.1
2018-Feb-20 00:59N 45°28' E 036°38'0 0.0
2018-Feb-20 00:29N 45°28' E 036°38'0 0.0
2018-Feb-19 23:50N 45°28' E 036°38'0 0.0
2018-Feb-19 23:23N 45°28' E 036°38'0 0.0
2018-Feb-19 22:56N 45°28' E 036°38'0 0.0
2018-Feb-19 22:29N 45°28' E 036°38'1 1.8
2018-Feb-19 22:00N 45°27' E 036°39'4 8.6
2018-Feb-19 21:31N 45°23' E 036°41'4 8.4
2018-Feb-19 21:00N 45°20' E 036°36'5 9.5
2018-Feb-19 20:30N 45°18' E 036°30'6 6.3
2018-Feb-19 19:36N 45°13' E 036°29'1 5.2
2018-Feb-19 19:29N 45°12' E 036°30'0 0.8
2018-Feb-19 18:54N 45°12' E 036°30'0 0.0
2018-Feb-19 15:15N 45°12' E 036°30'0 1.4
2018-Feb-19 14:58N 45°11' E 036°30'910.9
2018-Feb-19 14:11N 45°03' E 036°30'30710.6
2018-Feb-18 09:06N 43°60' E 029°28'111.9
2018-Feb-18 09:00N 43°60' E 029°27'611.6
2018-Feb-18 08:30N 43°59' E 029°19'611.2
2018-Feb-18 08:00N 43°59' E 029°11'611.3
2018-Feb-18 07:31N 43°59' E 029°03'611.3
2018-Feb-18 07:01N 43°59' E 028°55'511.0
2018-Feb-18 06:31N 43°59' E 028°48'611.9
2018-Feb-18 06:01N 44°04' E 028°43'5 9.8
2018-Feb-18 05:31N 44°09' E 028°40'1 1.7
2018-Feb-18 04:59N 44°09' E 028°39'0 0.0
2018-Feb-18 04:29N 44°09' E 028°39'0 0.0
2018-Feb-18 03:59N 44°09' E 028°39'0 0.0
2018-Feb-18 03:29N 44°09' E 028°39'0 0.0
2018-Feb-18 02:58N 44°09' E 028°39'0 0.0
2018-Feb-18 02:28N 44°09' E 028°39'0 0.0
2018-Feb-18 01:59N 44°09' E 028°39'0 0.0
2018-Feb-18 01:29N 44°09' E 028°39'0 0.0
2018-Feb-18 00:59N 44°09' E 028°39'0 0.0
2018-Feb-18 00:28N 44°09' E 028°39'0 0.0
2018-Feb-17 23:59N 44°09' E 028°39'0 0.0
2018-Feb-17 23:29N 44°09' E 028°39'0 0.2
2018-Feb-17 23:01N 44°09' E 028°39'1 2.1
2018-Feb-17 22:30N 44°09' E 028°40'3 6.8
2018-Feb-17 22:00N 44°06' E 028°43'2 4.3
2018-Feb-17 21:30N 44°07' E 028°46'0 0.4
2018-Feb-17 20:58N 44°07' E 028°46'0 0.0
2018-Feb-17 20:28N 44°07' E 028°46'0 0.1
2018-Feb-17 19:58N 44°07' E 028°46'0 0.1
2018-Feb-17 19:28N 44°07' E 028°46'0 0.0
2018-Feb-17 18:58N 44°07' E 028°46'0 0.0
2018-Feb-17 18:25N 44°07' E 028°46'0 0.0
2018-Feb-17 17:58N 44°07' E 028°46'0 0.0
2018-Feb-17 17:28N 44°07' E 028°46'0 0.0
2018-Feb-17 16:58N 44°07' E 028°46'0 0.0
2018-Feb-17 16:28N 44°07' E 028°46'0 0.0
2018-Feb-17 15:58N 44°07' E 028°46'0 0.0
2018-Feb-17 15:28N 44°07' E 028°46'0 0.0
2018-Feb-17 14:58N 44°07' E 028°46'0 0.0
2018-Feb-17 14:28N 44°07' E 028°46'0 0.0
2018-Feb-17 13:58N 44°07' E 028°46'0 0.0
2018-Feb-17 13:28N 44°07' E 028°46'0 0.0
2018-Feb-17 12:58N 44°07' E 028°46'0 0.0
2018-Feb-17 12:28N 44°07' E 028°46'0 0.0
2018-Feb-17 11:58N 44°07' E 028°46'0 0.0
2018-Feb-17 11:28N 44°07' E 028°46'0 0.0
2018-Feb-17 10:58N 44°07' E 028°46'0 0.0
2018-Feb-17 10:28N 44°07' E 028°46'0 0.0
2018-Feb-17 09:58N 44°07' E 028°46'0 0.5
2018-Feb-17 09:31N 44°07' E 028°46'4 7.8
2018-Feb-17 09:01N 44°03' E 028°48'510.5
2018-Feb-17 08:31N 43°58' E 028°50'510.5
2018-Feb-17 08:00N 43°53' E 028°51'510.4
2018-Feb-17 07:31N 43°48' E 028°51'510.3
2018-Feb-17 07:01N 43°43' E 028°52'510.3
2018-Feb-17 06:31N 43°37' E 028°53'510.2
2018-Feb-17 06:00N 43°32' E 028°54'510.0
2018-Feb-17 05:30N 43°27' E 028°54'510.0
2018-Feb-17 04:58N 43°22' E 028°55'  
2018-Feb-13 01:21N 36°30' E 014°36'411.4
2018-Feb-13 00:58N 36°31' E 014°31'  

Dump ship's entire track history